createdAt,value
2019-03-06T00:01:39.126Z,9.17
2019-03-06T00:04:08.280Z,9.50
2019-03-06T00:06:37.449Z,9.17
2019-03-06T00:09:07.806Z,9.90
2019-03-06T00:11:37.000Z,9.93
2019-03-06T00:14:06.175Z,9.43
2019-03-06T00:16:35.307Z,10.00
2019-03-06T00:19:04.440Z,9.73
2019-03-06T00:21:33.833Z,10.07
2019-03-06T00:24:03.058Z,10.50
2019-03-06T00:26:32.247Z,10.97
2019-03-06T00:29:01.384Z,10.37
2019-03-06T00:31:30.560Z,10.53
2019-03-06T00:33:59.687Z,11.13
2019-03-06T00:36:30.788Z,11.17
2019-03-06T00:39:00.165Z,12.00
2019-03-06T00:41:40.877Z,13.07
2019-03-06T00:44:10.109Z,12.00
2019-03-06T00:46:40.824Z,11.57
2019-03-06T00:49:09.975Z,12.07
2019-03-06T00:51:39.192Z,13.13
2019-03-06T00:54:08.680Z,13.53
2019-03-06T00:56:37.923Z,13.20
2019-03-06T00:59:07.166Z,13.43
2019-03-06T01:01:36.244Z,13.17
2019-03-06T01:04:05.467Z,13.07
2019-03-06T01:06:34.870Z,13.63
2019-03-06T01:09:05.558Z,13.37
2019-03-06T01:11:34.787Z,12.80
2019-03-06T01:14:04.088Z,13.00
2019-03-06T01:16:33.388Z,12.70
2019-03-06T01:19:02.628Z,15.23
2019-03-06T01:21:31.771Z,13.57
2019-03-06T01:24:01.055Z,13.40
2019-03-06T01:26:30.257Z,13.30
2019-03-06T01:28:59.494Z,13.40
2019-03-06T01:31:28.764Z,13.83
2019-03-06T01:34:15.807Z,13.37
2019-03-06T01:36:57.775Z,12.43
2019-03-06T01:39:44.894Z,12.77
2019-03-06T01:42:25.749Z,12.73
2019-03-06T01:44:58.269Z,13.13
2019-03-06T01:47:27.603Z,13.13
2019-03-06T01:49:56.830Z,12.20
2019-03-06T01:52:25.999Z,12.80
2019-03-06T01:54:55.131Z,13.07
2019-03-06T01:57:24.367Z,12.17
2019-03-06T01:59:53.855Z,12.07
2019-03-06T02:02:22.960Z,12.27
2019-03-06T02:04:52.204Z,12.43
2019-03-06T02:07:21.596Z,12.60
2019-03-06T02:09:50.747Z,12.47
2019-03-06T02:12:19.860Z,11.60
2019-03-06T02:14:49.093Z,11.27
2019-03-06T02:17:18.492Z,11.23
2019-03-06T02:19:47.596Z,12.30
2019-03-06T02:22:16.848Z,11.70
2019-03-06T02:24:46.095Z,11.63
2019-03-06T02:27:15.243Z,10.80
2019-03-06T02:29:44.435Z,11.60
2019-03-06T02:32:13.838Z,10.90
2019-03-06T02:34:43.036Z,11.00
2019-03-06T02:37:12.229Z,9.97
2019-03-06T02:39:41.466Z,11.73
2019-03-06T02:42:12.881Z,11.83
2019-03-06T02:44:42.451Z,10.60
2019-03-06T02:47:11.604Z,10.07
2019-03-06T02:49:40.719Z,10.73
2019-03-06T02:52:09.854Z,9.87
2019-03-06T02:54:39.120Z,10.73
2019-03-06T02:57:08.231Z,10.30
2019-03-06T02:59:49.901Z,10.63
2019-03-06T03:02:44.017Z,9.83
2019-03-06T03:05:20.212Z,9.80
2019-03-06T03:07:49.297Z,9.57
2019-03-06T03:10:18.570Z,9.77
2019-03-06T03:12:47.749Z,9.60
2019-03-06T03:15:17.442Z,10.17
2019-03-06T03:17:46.634Z,9.73
2019-03-06T03:20:15.966Z,9.17
2019-03-06T03:22:45.100Z,9.27
2019-03-06T03:25:14.325Z,8.77
2019-03-06T03:27:43.988Z,9.37
2019-03-06T03:30:14.237Z,8.33
2019-03-06T03:32:43.498Z,9.27
2019-03-06T03:35:12.670Z,8.97
2019-03-06T03:37:41.809Z,8.47
2019-03-06T03:40:12.328Z,8.50
2019-03-06T03:42:41.647Z,8.43
2019-03-06T03:45:11.439Z,8.27
2019-03-06T03:47:40.610Z,8.77
2019-03-06T03:50:10.117Z,8.33
2019-03-06T03:52:39.615Z,8.37
2019-03-06T03:55:08.940Z,8.97
2019-03-06T03:57:38.139Z,7.87
2019-03-06T04:00:09.350Z,7.50
2019-03-06T04:02:38.582Z,6.83
2019-03-06T04:05:08.846Z,7.25
2019-03-06T04:07:38.041Z,6.60
2019-03-06T04:10:07.958Z,7.00
2019-03-06T04:12:37.293Z,5.93
2019-03-06T04:15:07.016Z,6.60
2019-03-06T04:17:36.486Z,6.40
2019-03-06T04:20:06.178Z,6.20
2019-03-06T04:22:35.291Z,5.90
2019-03-06T04:25:04.762Z,5.13
2019-03-06T04:27:33.925Z,6.03
2019-03-06T04:30:03.115Z,5.80
2019-03-06T04:32:32.208Z,5.50
2019-03-06T04:35:01.485Z,5.63
2019-03-06T04:37:30.597Z,5.20
2019-03-06T04:39:59.785Z,5.40
2019-03-06T04:42:28.935Z,5.03
2019-03-06T04:44:58.126Z,5.00
2019-03-06T04:47:27.309Z,4.70
2019-03-06T04:49:56.552Z,4.60
2019-03-06T04:52:25.759Z,5.10
2019-03-06T04:54:54.996Z,4.37
2019-03-06T04:57:24.075Z,3.50
2019-03-06T04:59:53.184Z,3.90
2019-03-06T05:02:22.403Z,3.90
2019-03-06T05:04:51.737Z,4.40
2019-03-06T05:07:21.054Z,3.87
2019-03-06T05:09:50.131Z,3.53
2019-03-06T05:12:19.228Z,4.43
2019-03-06T05:14:48.344Z,4.27
2019-03-06T05:17:48.795Z,3.83
2019-03-06T05:20:17.918Z,4.00
2019-03-06T05:22:47.039Z,3.53
2019-03-06T05:25:16.123Z,4.03
2019-03-06T05:27:45.519Z,3.53
2019-03-06T05:30:15.029Z,3.50
2019-03-06T05:32:45.120Z,3.67
2019-03-06T05:35:21.399Z,3.60
2019-03-06T05:38:00.082Z,3.40
2019-03-06T05:40:29.318Z,3.23
2019-03-06T05:42:58.580Z,3.50
2019-03-06T05:45:27.843Z,4.07
2019-03-06T05:47:57.013Z,4.33
2019-03-06T05:50:26.195Z,3.70
2019-03-06T05:52:55.316Z,3.30
2019-03-06T05:55:24.497Z,3.70
2019-03-06T05:57:53.739Z,3.53
2019-03-06T06:00:27.544Z,4.00
2019-03-06T06:02:57.277Z,3.87
2019-03-06T06:05:26.620Z,3.50
2019-03-06T06:08:00.172Z,3.47
2019-03-06T06:10:30.992Z,3.10
2019-03-06T06:13:00.172Z,3.00
2019-03-06T06:15:29.924Z,2.53
2019-03-06T06:17:59.854Z,3.00
2019-03-06T06:20:29.140Z,2.87
2019-03-06T06:23:22.005Z,2.67
2019-03-06T06:25:51.755Z,2.37
2019-03-06T06:28:21.380Z,2.63
2019-03-06T06:30:50.799Z,2.90
2019-03-06T06:33:20.845Z,2.27
2019-03-06T06:35:50.290Z,2.90
2019-03-06T06:38:20.059Z,2.27
2019-03-06T06:40:49.361Z,2.60
2019-03-06T06:43:19.782Z,2.57
2019-03-06T06:45:49.245Z,2.30
2019-03-06T06:48:20.537Z,2.80
2019-03-06T06:51:02.319Z,2.20
2019-03-06T06:54:03.241Z,2.40
2019-03-06T06:57:31.685Z,1.97
2019-03-06T07:01:00.760Z,2.00
2019-03-06T07:04:16.724Z,2.03
2019-03-06T07:07:10.103Z,2.60
2019-03-06T07:10:02.383Z,2.20
2019-03-06T07:12:50.578Z,2.10
2019-03-06T07:15:51.403Z,2.17
2019-03-06T07:18:38.197Z,2.07
2019-03-06T07:21:22.099Z,1.90
2019-03-06T07:24:13.051Z,1.80
2019-03-06T07:27:06.049Z,1.57
2019-03-06T07:29:56.961Z,1.93
2019-03-06T07:33:00.275Z,2.03
2019-03-06T07:36:14.211Z,1.60
2019-03-06T07:38:43.827Z,1.50
2019-03-06T07:41:24.683Z,1.77
2019-03-06T07:44:00.796Z,1.83
2019-03-06T07:46:47.541Z,2.00
2019-03-06T07:49:24.772Z,1.67
2019-03-06T07:52:16.206Z,1.80
2019-03-06T07:55:10.384Z,1.70
2019-03-06T07:58:15.887Z,1.87
2019-03-06T08:00:45.063Z,1.65
2019-03-06T08:03:37.423Z,2.03
2019-03-06T08:06:06.774Z,1.57
2019-03-06T08:08:35.901Z,2.00
2019-03-06T08:11:07.724Z,1.70
2019-03-06T08:13:48.499Z,2.13
2019-03-06T08:16:26.515Z,2.30
2019-03-06T08:19:17.498Z,2.00
2019-03-06T08:22:01.489Z,2.00
2019-03-06T08:24:42.052Z,1.80
2019-03-06T08:27:11.352Z,1.50
2019-03-06T08:29:40.618Z,1.87
2019-03-06T08:32:19.131Z,1.60
2019-03-06T08:34:48.347Z,2.52
2019-03-06T08:37:17.680Z,1.70
2019-03-06T08:39:47.135Z,1.80
2019-03-06T08:42:16.396Z,1.57
2019-03-06T08:44:45.752Z,1.77
2019-03-06T08:47:38.188Z,1.80
2019-03-06T08:50:36.352Z,2.37
2019-03-06T08:53:22.673Z,1.90
2019-03-06T08:56:00.100Z,2.03
2019-03-06T08:58:44.959Z,2.20
2019-03-06T09:02:00.166Z,1.90
2019-03-06T09:04:35.847Z,1.73
2019-03-06T09:07:36.220Z,2.10
2019-03-06T09:10:37.942Z,2.22
2019-03-06T09:13:17.048Z,7.30
2019-03-06T09:16:08.323Z,2.20
2019-03-06T09:18:56.501Z,2.00
2019-03-06T09:21:35.696Z,2.37
2019-03-06T09:24:24.492Z,2.45
2019-03-06T09:27:12.709Z,1.93
2019-03-06T09:29:57.562Z,2.30
2019-03-06T09:32:41.011Z,2.17
2019-03-06T09:35:25.097Z,2.70
2019-03-06T09:38:10.936Z,2.60
2019-03-06T09:40:46.986Z,2.40
2019-03-06T09:43:28.210Z,2.03
2019-03-06T09:46:15.168Z,2.23
2019-03-06T09:48:50.124Z,2.37
2019-03-06T09:51:42.663Z,2.50
2019-03-06T09:54:49.096Z,2.17
2019-03-06T09:57:30.492Z,2.45
2019-03-06T10:00:05.313Z,2.27
2019-03-06T10:02:52.149Z,2.50
2019-03-06T10:05:52.708Z,2.27
2019-03-06T10:08:49.691Z,2.50
2019-03-06T10:11:24.839Z,2.57
2019-03-06T10:14:01.003Z,2.87
2019-03-06T10:16:48.842Z,3.00
2019-03-06T10:19:29.643Z,2.12
2019-03-06T10:21:59.173Z,2.50
2019-03-06T10:24:28.678Z,2.65
2019-03-06T10:26:58.000Z,2.55
2019-03-06T10:29:27.495Z,2.80
2019-03-06T10:31:56.752Z,2.63
2019-03-06T10:34:26.372Z,2.90
2019-03-06T10:36:55.596Z,2.85
2019-03-06T10:39:24.785Z,2.58
2019-03-06T10:41:54.866Z,2.85
2019-03-06T10:44:29.475Z,2.90
2019-03-06T10:46:55.094Z,2.33
2019-03-06T10:49:24.996Z,2.65
2019-03-06T10:51:54.248Z,2.80
2019-03-06T10:54:23.423Z,2.63
2019-03-06T10:56:52.820Z,2.87
2019-03-06T10:59:22.111Z,2.55
2019-03-06T11:01:51.231Z,2.75
2019-03-06T11:04:39.494Z,2.85
2019-03-06T11:07:08.886Z,2.80
2019-03-06T11:09:38.284Z,2.65
2019-03-06T11:12:07.959Z,2.77
2019-03-06T11:14:37.688Z,3.05
2019-03-06T11:17:06.941Z,2.52
2019-03-06T11:19:36.492Z,3.20
2019-03-06T11:22:06.620Z,2.92
2019-03-06T11:24:36.103Z,2.90
2019-03-06T11:27:06.266Z,2.70
2019-03-06T11:29:35.737Z,2.85
2019-03-06T11:32:06.175Z,3.00
2019-03-06T11:34:35.369Z,2.87
2019-03-06T11:37:05.345Z,2.62
2019-03-06T11:39:34.579Z,2.90
2019-03-06T11:42:03.938Z,2.83
2019-03-06T11:44:33.052Z,3.33
2019-03-06T11:47:02.351Z,3.20
2019-03-06T11:49:31.704Z,3.05
2019-03-06T11:52:02.011Z,2.80
2019-03-06T11:54:31.296Z,3.15
2019-03-06T11:57:00.629Z,3.15
2019-03-06T11:59:30.114Z,3.03
2019-03-06T12:01:59.287Z,3.05
2019-03-06T12:04:28.634Z,3.10
2019-03-06T12:06:57.950Z,3.05
2019-03-06T12:09:32.211Z,2.98
2019-03-06T12:12:02.691Z,3.15
2019-03-06T12:14:32.164Z,2.80
2019-03-06T12:17:01.478Z,3.02
2019-03-06T12:19:30.739Z,2.90
2019-03-06T12:22:00.164Z,2.70
2019-03-06T12:24:29.547Z,3.17
2019-03-06T12:26:58.746Z,2.77
2019-03-06T12:29:27.990Z,2.92
2019-03-06T12:31:57.244Z,3.10
2019-03-06T12:34:26.823Z,3.20
2019-03-06T12:36:55.952Z,2.87
2019-03-06T12:39:25.611Z,3.23
2019-03-06T12:41:54.878Z,2.65
2019-03-06T12:44:24.325Z,3.60
2019-03-06T12:46:55.279Z,3.00
2019-03-06T12:49:26.758Z,3.00
2019-03-06T12:51:56.037Z,3.63
2019-03-06T12:54:25.254Z,3.42
2019-03-06T12:56:54.421Z,3.58
2019-03-06T12:59:23.579Z,3.20
2019-03-06T13:01:52.739Z,3.58
2019-03-06T13:04:23.092Z,2.80
2019-03-06T13:06:53.355Z,3.43
2019-03-06T13:09:22.724Z,3.37
2019-03-06T13:11:52.013Z,2.90
2019-03-06T13:14:21.726Z,3.40
2019-03-06T13:16:51.798Z,3.15
2019-03-06T13:19:21.075Z,3.02
2019-03-06T13:21:50.573Z,3.67
2019-03-06T13:24:19.840Z,3.08
2019-03-06T13:26:49.103Z,2.70
2019-03-06T13:29:18.770Z,4.00
2019-03-06T13:31:47.945Z,3.90
2019-03-06T13:34:50.326Z,3.42
2019-03-06T13:37:13.255Z,3.08
2019-03-06T13:39:42.371Z,3.30
2019-03-06T13:42:16.269Z,3.43
2019-03-06T13:44:45.538Z,2.70
2019-03-06T13:47:14.826Z,3.37
2019-03-06T13:49:43.987Z,3.75
2019-03-06T13:52:13.592Z,3.05
2019-03-06T13:54:42.779Z,3.00
2019-03-06T13:57:12.267Z,3.67
2019-03-06T13:59:41.976Z,3.20
2019-03-06T14:02:11.583Z,2.72
2019-03-06T14:04:40.667Z,3.55
2019-03-06T14:07:10.053Z,3.12
2019-03-06T14:09:39.393Z,2.70
2019-03-06T14:12:08.616Z,3.10
2019-03-06T14:14:37.860Z,2.47
2019-03-06T14:17:08.343Z,2.92
2019-03-06T14:19:37.621Z,3.05
2019-03-06T14:22:07.024Z,3.30
2019-03-06T14:24:36.231Z,2.77
2019-03-06T14:27:06.732Z,3.22
2019-03-06T14:29:35.931Z,2.85
2019-03-06T14:32:14.071Z,2.80
2019-03-06T14:34:36.012Z,2.87
2019-03-06T14:37:05.392Z,2.50
2019-03-06T14:39:34.680Z,3.40
2019-03-06T14:42:04.041Z,3.03
2019-03-06T14:44:33.311Z,3.45
2019-03-06T14:47:02.509Z,2.62
2019-03-06T14:49:32.021Z,3.00
2019-03-06T14:52:07.088Z,3.67
2019-03-06T14:54:32.214Z,3.10
2019-03-06T14:57:01.413Z,3.92
2019-03-06T14:59:30.827Z,3.00
2019-03-06T15:02:00.091Z,3.10
2019-03-06T15:04:29.467Z,3.20
2019-03-06T15:06:58.697Z,3.22
2019-03-06T15:09:28.516Z,3.85
2019-03-06T15:11:57.760Z,3.35
2019-03-06T15:14:35.839Z,3.00
2019-03-06T15:16:57.935Z,2.92
2019-03-06T15:19:27.176Z,3.45
2019-03-06T15:21:56.444Z,3.05
2019-03-06T15:24:25.577Z,3.58
2019-03-06T15:26:55.008Z,2.83
2019-03-06T15:29:24.172Z,3.00
2019-03-06T15:31:53.604Z,3.05
2019-03-06T15:34:22.982Z,3.37
2019-03-06T15:36:52.169Z,3.67
2019-03-06T15:39:42.176Z,3.58
2019-03-06T15:42:05.586Z,3.47
2019-03-06T15:44:34.893Z,3.40
2019-03-06T15:47:04.240Z,3.20
2019-03-06T15:49:33.627Z,3.87
2019-03-06T15:52:03.119Z,3.30
2019-03-06T15:54:32.368Z,3.20
2019-03-06T15:57:01.648Z,3.13
2019-03-06T15:59:31.180Z,2.80
2019-03-06T16:02:00.413Z,2.98
2019-03-06T16:04:29.716Z,2.98
2019-03-06T16:06:59.011Z,3.67
2019-03-06T16:09:28.491Z,2.98
2019-03-06T16:11:58.128Z,3.08
2019-03-06T16:14:33.165Z,3.20
2019-03-06T16:17:02.353Z,3.70
2019-03-06T16:19:31.768Z,3.02
2019-03-06T16:22:00.897Z,3.10
2019-03-06T16:24:30.448Z,3.67
2019-03-06T16:26:59.735Z,3.58
2019-03-06T16:29:28.838Z,3.02
2019-03-06T16:31:58.117Z,3.20
2019-03-06T16:34:27.327Z,3.42
2019-03-06T16:36:56.527Z,3.67
2019-03-06T16:39:25.972Z,3.47
2019-03-06T16:41:55.183Z,3.15
2019-03-06T16:44:24.434Z,3.33
2019-03-06T16:46:53.719Z,3.65
2019-03-06T16:49:23.148Z,3.00
2019-03-06T16:51:52.427Z,3.08
2019-03-06T16:54:21.995Z,3.50
2019-03-06T16:57:01.343Z,3.92
2019-03-06T16:59:30.454Z,4.30
2019-03-06T17:01:59.734Z,3.50
2019-03-06T17:04:29.135Z,4.13
2019-03-06T17:06:58.449Z,3.57
2019-03-06T17:09:28.338Z,3.72
2019-03-06T17:11:59.404Z,3.60
2019-03-06T17:14:28.819Z,3.45
2019-03-06T17:16:58.775Z,3.72
2019-03-06T17:19:28.142Z,3.83
2019-03-06T17:21:57.536Z,3.83
2019-03-06T17:24:26.994Z,3.72
2019-03-06T17:26:56.432Z,4.28
2019-03-06T17:29:25.731Z,4.60
2019-03-06T17:31:55.194Z,3.95
2019-03-06T17:34:24.851Z,4.00
2019-03-06T17:36:54.111Z,4.35
2019-03-06T17:39:23.451Z,4.42
2019-03-06T17:41:52.940Z,4.83
2019-03-06T17:44:22.141Z,4.03
2019-03-06T17:46:51.780Z,4.42
2019-03-06T17:49:21.345Z,3.98
2019-03-06T17:51:50.824Z,4.45
2019-03-06T17:54:20.232Z,4.45
2019-03-06T17:56:49.608Z,4.35
2019-03-06T17:59:18.935Z,5.28
2019-03-06T18:01:48.442Z,4.12
2019-03-06T18:04:19.310Z,4.53
2019-03-06T18:06:48.413Z,4.67
2019-03-06T18:09:17.697Z,4.12
2019-03-06T18:11:46.981Z,4.40
2019-03-06T18:14:16.480Z,5.35
2019-03-06T18:17:04.779Z,5.00
2019-03-06T18:19:33.974Z,5.28
2019-03-06T18:22:03.152Z,4.85
2019-03-06T18:24:32.603Z,4.22
2019-03-06T18:27:01.773Z,4.03
2019-03-06T18:29:31.086Z,3.83
2019-03-06T18:32:00.578Z,4.33
2019-03-06T18:34:29.789Z,3.77
2019-03-06T18:36:58.879Z,5.28
2019-03-06T18:39:28.818Z,4.62
2019-03-06T18:41:58.152Z,5.13
2019-03-06T18:44:27.359Z,4.70
2019-03-06T18:46:56.672Z,4.37
2019-03-06T18:49:25.964Z,4.33
2019-03-06T18:51:55.227Z,3.75
2019-03-06T18:54:24.624Z,4.50
2019-03-06T18:57:13.460Z,4.40
2019-03-06T18:59:42.783Z,5.20
2019-03-06T19:02:12.365Z,4.63
2019-03-06T19:04:41.734Z,4.90
2019-03-06T19:07:11.164Z,4.65
2019-03-06T19:09:40.527Z,4.62
2019-03-06T19:12:09.780Z,4.58
2019-03-06T19:14:39.115Z,4.70
2019-03-06T19:17:08.211Z,4.33
2019-03-06T19:19:37.560Z,4.47
2019-03-06T19:22:07.233Z,4.57
2019-03-06T19:24:36.623Z,4.13
2019-03-06T19:27:05.859Z,4.87
2019-03-06T19:29:35.206Z,4.90
2019-03-06T19:32:05.175Z,4.65
2019-03-06T19:34:34.419Z,4.90
2019-03-06T19:37:03.776Z,4.97
2019-03-06T19:39:33.189Z,4.63
2019-03-06T19:42:02.631Z,4.80
2019-03-06T19:44:31.848Z,4.57
2019-03-06T19:47:01.200Z,5.30
2019-03-06T19:49:30.585Z,4.90
2019-03-06T19:52:00.048Z,5.28
2019-03-06T19:54:29.271Z,4.83
2019-03-06T19:56:58.684Z,4.93
2019-03-06T19:59:27.942Z,4.92
2019-03-06T20:01:57.243Z,4.80
2019-03-06T20:04:26.437Z,5.20
2019-03-06T20:06:55.815Z,4.55
2019-03-06T20:09:26.770Z,5.58
2019-03-06T20:11:55.977Z,4.90
2019-03-06T20:14:25.444Z,6.47
2019-03-06T20:16:54.695Z,4.50
2019-03-06T20:19:24.030Z,5.65
2019-03-06T20:21:53.786Z,5.35
2019-03-06T20:24:23.146Z,4.63
2019-03-06T20:26:52.402Z,5.17
2019-03-06T20:29:21.695Z,4.47
2019-03-06T20:31:50.966Z,5.00
2019-03-06T20:34:20.226Z,5.33
2019-03-06T20:36:49.783Z,5.13
2019-03-06T20:39:19.303Z,4.63
2019-03-06T20:42:07.612Z,4.87
2019-03-06T20:44:37.435Z,5.10
2019-03-06T20:47:06.589Z,4.87
2019-03-06T20:49:35.855Z,5.70
2019-03-06T20:52:05.436Z,5.40
2019-03-06T20:54:34.610Z,4.65
2019-03-06T20:57:03.859Z,5.33
2019-03-06T20:59:32.979Z,4.90
2019-03-06T21:02:02.174Z,5.87
2019-03-06T21:04:31.484Z,5.77
2019-03-06T21:07:00.949Z,5.30
2019-03-06T21:09:30.416Z,5.42
2019-03-06T21:11:59.684Z,5.90
2019-03-06T21:14:29.055Z,5.22
2019-03-06T21:16:58.440Z,6.22
2019-03-06T21:19:27.757Z,5.70
2019-03-06T21:21:57.031Z,6.00
2019-03-06T21:24:26.581Z,5.60
2019-03-06T21:26:55.941Z,5.83
2019-03-06T21:29:25.146Z,6.60
2019-03-06T21:31:55.630Z,5.97
2019-03-06T21:34:24.891Z,5.80
2019-03-06T21:36:54.176Z,6.27
2019-03-06T21:39:25.293Z,5.80
2019-03-06T21:41:54.443Z,5.87
2019-03-06T21:44:23.952Z,5.40
2019-03-06T21:46:53.197Z,5.70
2019-03-06T21:49:22.518Z,5.85
2019-03-06T21:51:51.987Z,5.90
2019-03-06T21:54:21.698Z,5.33
2019-03-06T21:56:50.960Z,5.55
2019-03-06T21:59:20.195Z,6.23
2019-03-06T22:01:49.404Z,5.67
2019-03-06T22:04:18.576Z,5.20
2019-03-06T22:06:48.294Z,5.75
2019-03-06T22:09:18.700Z,5.83
2019-03-06T22:11:48.175Z,5.58
2019-03-06T22:14:17.439Z,5.93
2019-03-06T22:16:46.594Z,6.12
2019-03-06T22:19:16.062Z,6.17
2019-03-06T22:21:45.348Z,6.05
2019-03-06T22:24:14.573Z,6.10
2019-03-06T22:26:43.961Z,6.00
2019-03-06T22:29:13.296Z,6.42
2019-03-06T22:31:42.639Z,6.33
2019-03-06T22:34:13.627Z,6.83
2019-03-06T22:36:42.984Z,6.62
2019-03-06T22:39:12.696Z,6.67
2019-03-06T22:41:42.083Z,7.80
2019-03-06T22:44:13.388Z,7.35
2019-03-06T22:46:42.345Z,7.75
2019-03-06T22:49:11.695Z,7.20
2019-03-06T22:51:46.305Z,6.75
2019-03-06T22:54:20.144Z,7.08
2019-03-06T22:56:50.409Z,7.62
2019-03-06T22:59:19.952Z,8.38
2019-03-06T23:01:54.011Z,8.53
2019-03-06T23:04:28.980Z,8.03
2019-03-06T23:06:59.719Z,7.87
2019-03-06T23:09:30.588Z,8.17
2019-03-06T23:12:03.124Z,8.03
2019-03-06T23:15:08.040Z,8.00
2019-03-06T23:17:16.323Z,8.03
2019-03-06T23:19:45.509Z,7.70
2019-03-06T23:22:14.772Z,7.70
2019-03-06T23:24:44.008Z,8.53
2019-03-06T23:27:13.392Z,8.23
2019-03-06T23:29:42.586Z,7.80
2019-03-06T23:32:11.889Z,7.13
2019-03-06T23:34:41.136Z,6.83
2019-03-06T23:37:10.310Z,6.80
2019-03-06T23:39:39.885Z,7.42
2019-03-06T23:42:09.101Z,7.92
2019-03-06T23:44:38.307Z,7.85
2019-03-06T23:47:07.534Z,7.00
2019-03-06T23:49:37.089Z,6.85
2019-03-06T23:52:19.168Z,6.23
2019-03-06T23:54:48.478Z,5.93
2019-03-06T23:57:36.873Z,7.03
